Circle Line Brooklyn — WDE8160 — position and weather

sailwx.info

Track history (hours):
 
Tides and Currents Weather Stations Pressure Air Temp Water Temp Dewpoint Dewpoint Depression Visibility Wind Speed Wind Dir Waves Ship Positions

Circle Line Brooklyn

Owner: Circle Line Sight Seeing Yachts Inc., New York, NY. More information available from US FCC via Universal Licensing System and Coast Guard Vessel Documentation Center.

Last reported at 2017-Nov-14 16:05 UTC. Time now 2017-Nov-18 02:57 UTC.
Position N 40°46' W 074°00'.

MMSI: 367402250.

Date/timePositionNaut miles runAvg speedWind from/ knotsBaromVisibWave heightAir tempDewpointWater temp
2017-Nov-14 16:05N 40°46' W 074°00'0 0.3
2017-Nov-14 16:00N 40°46' W 074°00'510.3
2017-Nov-14 15:30N 40°41' W 074°03'5 9.9
2017-Nov-14 15:00N 40°46' W 074°00'0 0.0
2017-Nov-14 14:28N 40°46' W 074°00'0 0.0
2017-Nov-14 02:00N 40°46' W 074°00'4 7.3
2017-Nov-14 01:31N 40°42' W 074°01'3 5.9
2017-Nov-14 01:00N 40°44' W 073°58'4 8.3
2017-Nov-14 00:30N 40°41' W 074°02'5 9.4
2017-Nov-14 00:00N 40°46' W 074°00'0 0.0
2017-Nov-13 23:30N 40°46' W 074°00'0 0.0
2017-Nov-13 23:00N 40°46' W 074°00'0 0.0
2017-Nov-13 22:30N 40°46' W 074°00'0 0.0
2017-Nov-13 22:00N 40°46' W 074°00'0 0.0
2017-Nov-12 19:25N 40°46' W 074°00'410.2
2017-Nov-12 19:00N 40°50' W 073°58'2 2.9
2017-Nov-12 18:26N 40°50' W 073°56'511.2
2017-Nov-12 17:59N 40°45' W 073°57'612.4
2017-Nov-12 17:31N 40°41' W 074°03'5 9.2
2017-Nov-12 16:58N 40°46' W 074°00'0 0.0
2017-Nov-12 16:25N 40°46' W 074°00'0 0.0
2017-Nov-12 16:00N 40°46' W 074°00'510.2
2017-Nov-12 15:31N 40°41' W 074°03'5 9.3
2017-Nov-12 14:58N 40°46' W 074°00'0 0.0
2017-Nov-12 14:28N 40°46' W 074°00'0 0.0
2017-Nov-12 00:20N 40°46' W 074°00'0 0.0
2017-Nov-11 23:59N 40°46' W 074°00'2 3.7
2017-Nov-11 23:30N 40°44' W 074°01'2 5.0
2017-Nov-11 23:00N 40°43' W 073°58'3 7.0
2017-Nov-11 22:30N 40°42' W 074°02'5 9.1
2017-Nov-11 22:01N 40°46' W 074°00'0 0.2
2017-Nov-11 21:23N 40°46' W 074°00'0 0.0
2017-Nov-11 20:59N 40°46' W 074°00'0 0.0
2017-Nov-11 20:30N 40°46' W 074°00'  
2017-Nov-07 19:36N 40°46' W 074°00'0 3.3
2017-Nov-07 19:30N 40°46' W 074°00'3 1.9
2017-Nov-07 18:12N 40°46' W 073°57'210.8
2017-Nov-07 18:00N 40°44' W 073°58'4 8.8
2017-Nov-07 17:30N 40°41' W 074°02'5 8.3
2017-Nov-07 16:56N 40°46' W 074°00'0 0.0
2017-Nov-07 16:29N 40°46' W 074°00'0 0.0
2017-Nov-07 16:00N 40°46' W 074°00'4 7.1
2017-Nov-07 15:30N 40°42' W 074°02'4 6.9
2017-Nov-07 15:00N 40°46' W 074°00'0 0.0
2017-Nov-07 14:30N 40°46' W 074°00'0 0.0
2017-Nov-07 14:00N 40°46' W 074°00'0 0.0
2017-Nov-06 20:05N 40°46' W 074°00'0 0.0
2017-Nov-05 20:01N 40°46' W 074°00'0 0.0
2017-Nov-05 20:00N 40°46' W 074°00'0 0.0
2017-Nov-05 19:30N 40°46' W 074°00'713.1
2017-Nov-05 19:00N 40°52' W 073°56'6 7.1
2017-Nov-05 18:08N 40°46' W 073°57'110.8
2017-Nov-05 18:00N 40°44' W 073°58'5 9.6
2017-Nov-05 17:30N 40°41' W 074°03'510.1
2017-Nov-05 17:00N 40°46' W 074°00'0 0.0
2017-Nov-05 16:30N 40°46' W 074°00'0 0.0
2017-Nov-05 16:00N 40°46' W 074°00'5 9.7
2017-Nov-05 15:30N 40°41' W 074°02'5 9.5
2017-Nov-05 15:00N 40°46' W 074°00'0 0.0
2017-Nov-05 14:30N 40°46' W 074°00'0 0.0
2017-Nov-04 22:58N 40°46' W 074°00'0 0.0
2017-Nov-04 22:28N 40°46' W 074°00'0 0.0
2017-Nov-04 21:58N 40°46' W 074°00'0 0.0
2017-Nov-04 21:28N 40°46' W 074°00'0 0.0
2017-Nov-04 21:00N 40°46' W 074°00'3 6.9
2017-Nov-04 20:30N 40°42' W 073°60'3 5.4
2017-Nov-04 20:00N 40°41' W 074°03'510.0
2017-Nov-04 19:30N 40°46' W 074°00'0 0.0
2017-Nov-04 18:59N 40°46' W 074°00'0 0.0
2017-Nov-04 18:30N 40°46' W 074°00'714.3
2017-Nov-04 18:00N 40°52' W 073°56'6 8.9
2017-Nov-04 17:20N 40°46' W 073°57'310.0
2017-Nov-04 17:00N 40°43' W 073°58'3 6.1
2017-Nov-04 16:31N 40°42' W 074°02'  
Track history (hours):
 
Tides and Currents Weather Stations Pressure Air Temp Water Temp Dewpoint Dewpoint Depression Visibility Wind Speed Wind Dir Waves Ship Positions

Circle Line Brooklyn

Owner: Circle Line Sight Seeing Yachts Inc., New York, NY. More information available from US FCC via Universal Licensing System and Coast Guard Vessel Documentation Center.

Last reported at 2017-Nov-14 16:05 UTC. Time now 2017-Nov-18 02:57 UTC.
Position N 40°46' W 074°00'.

MMSI: 367402250.

Date/timePositionNaut miles runAvg speedWind from/ knotsBaromVisibWave heightAir tempDewpointWater temp
2017-Nov-14 16:05N 40°46' W 074°00'0 0.3
2017-Nov-14 16:00N 40°46' W 074°00'510.3
2017-Nov-14 15:30N 40°41' W 074°03'5 9.9
2017-Nov-14 15:00N 40°46' W 074°00'0 0.0
2017-Nov-14 14:28N 40°46' W 074°00'0 0.0
2017-Nov-14 02:00N 40°46' W 074°00'4 7.3
2017-Nov-14 01:31N 40°42' W 074°01'3 5.9
2017-Nov-14 01:00N 40°44' W 073°58'4 8.3
2017-Nov-14 00:30N 40°41' W 074°02'5 9.4
2017-Nov-14 00:00N 40°46' W 074°00'0 0.0
2017-Nov-13 23:30N 40°46' W 074°00'0 0.0
2017-Nov-13 23:00N 40°46' W 074°00'0 0.0
2017-Nov-13 22:30N 40°46' W 074°00'0 0.0
2017-Nov-13 22:00N 40°46' W 074°00'0 0.0
2017-Nov-12 19:25N 40°46' W 074°00'410.2
2017-Nov-12 19:00N 40°50' W 073°58'2 2.9
2017-Nov-12 18:26N 40°50' W 073°56'511.2
2017-Nov-12 17:59N 40°45' W 073°57'612.4
2017-Nov-12 17:31N 40°41' W 074°03'5 9.2
2017-Nov-12 16:58N 40°46' W 074°00'0 0.0
2017-Nov-12 16:25N 40°46' W 074°00'0 0.0
2017-Nov-12 16:00N 40°46' W 074°00'510.2
2017-Nov-12 15:31N 40°41' W 074°03'5 9.3
2017-Nov-12 14:58N 40°46' W 074°00'0 0.0
2017-Nov-12 14:28N 40°46' W 074°00'0 0.0
2017-Nov-12 00:20N 40°46' W 074°00'0 0.0
2017-Nov-11 23:59N 40°46' W 074°00'2 3.7
2017-Nov-11 23:30N 40°44' W 074°01'2 5.0
2017-Nov-11 23:00N 40°43' W 073°58'3 7.0
2017-Nov-11 22:30N 40°42' W 074°02'5 9.1
2017-Nov-11 22:01N 40°46' W 074°00'0 0.2
2017-Nov-11 21:23N 40°46' W 074°00'0 0.0
2017-Nov-11 20:59N 40°46' W 074°00'0 0.0
2017-Nov-11 20:30N 40°46' W 074°00'  
2017-Nov-07 19:36N 40°46' W 074°00'0 3.3
2017-Nov-07 19:30N 40°46' W 074°00'3 1.9
2017-Nov-07 18:12N 40°46' W 073°57'210.8
2017-Nov-07 18:00N 40°44' W 073°58'4 8.8
2017-Nov-07 17:30N 40°41' W 074°02'5 8.3
2017-Nov-07 16:56N 40°46' W 074°00'0 0.0
2017-Nov-07 16:29N 40°46' W 074°00'0 0.0
2017-Nov-07 16:00N 40°46' W 074°00'4 7.1
2017-Nov-07 15:30N 40°42' W 074°02'4 6.9
2017-Nov-07 15:00N 40°46' W 074°00'0 0.0
2017-Nov-07 14:30N 40°46' W 074°00'0 0.0
2017-Nov-07 14:00N 40°46' W 074°00'0 0.0
2017-Nov-06 20:05N 40°46' W 074°00'0 0.0
2017-Nov-05 20:01N 40°46' W 074°00'0 0.0
2017-Nov-05 20:00N 40°46' W 074°00'0 0.0
2017-Nov-05 19:30N 40°46' W 074°00'713.1
2017-Nov-05 19:00N 40°52' W 073°56'6 7.1
2017-Nov-05 18:08N 40°46' W 073°57'110.8
2017-Nov-05 18:00N 40°44' W 073°58'5 9.6
2017-Nov-05 17:30N 40°41' W 074°03'510.1
2017-Nov-05 17:00N 40°46' W 074°00'0 0.0
2017-Nov-05 16:30N 40°46' W 074°00'0 0.0
2017-Nov-05 16:00N 40°46' W 074°00'5 9.7
2017-Nov-05 15:30N 40°41' W 074°02'5 9.5
2017-Nov-05 15:00N 40°46' W 074°00'0 0.0
2017-Nov-05 14:30N 40°46' W 074°00'0 0.0
2017-Nov-04 22:58N 40°46' W 074°00'0 0.0
2017-Nov-04 22:28N 40°46' W 074°00'0 0.0
2017-Nov-04 21:58N 40°46' W 074°00'0 0.0
2017-Nov-04 21:28N 40°46' W 074°00'0 0.0
2017-Nov-04 21:00N 40°46' W 074°00'3 6.9
2017-Nov-04 20:30N 40°42' W 073°60'3 5.4
2017-Nov-04 20:00N 40°41' W 074°03'510.0
2017-Nov-04 19:30N 40°46' W 074°00'0 0.0
2017-Nov-04 18:59N 40°46' W 074°00'0 0.0
2017-Nov-04 18:30N 40°46' W 074°00'714.3
2017-Nov-04 18:00N 40°52' W 073°56'6 8.9
2017-Nov-04 17:20N 40°46' W 073°57'310.0
2017-Nov-04 17:00N 40°43' W 073°58'3 6.1
2017-Nov-04 16:31N 40°42' W 074°02'  

Dump ship's entire track history